sensor_id;sensor_type;location;lat;lon;timestamp;P1;durP1;ratioP1;P2;durP2;ratioP2
55497;SDS011;41357;52.806;18.268;2023-10-19T00:00:40;27.40;;;10.45;;
55497;SDS011;41357;52.806;18.268;2023-10-19T00:03:10;24.92;;;10.88;;
55497;SDS011;41357;52.806;18.268;2023-10-19T00:05:36;25.85;;;10.30;;
55497;SDS011;41357;52.806;18.268;2023-10-19T00:08:03;30.52;;;12.00;;
55497;SDS011;41357;52.806;18.268;2023-10-19T00:10:51;28.45;;;9.85;;
55497;SDS011;41357;52.806;18.268;2023-10-19T00:13:31;23.42;;;9.85;;
55497;SDS011;41357;52.806;18.268;2023-10-19T00:15:57;28.60;;;10.43;;
55497;SDS011;41357;52.806;18.268;2023-10-19T00:18:24;26.85;;;11.00;;
55497;SDS011;41357;52.806;18.268;2023-10-19T00:20:51;25.50;;;10.02;;
55497;SDS011;41357;52.806;18.268;2023-10-19T00:23:21;29.35;;;10.18;;
55497;SDS011;41357;52.806;18.268;2023-10-19T00:25:54;25.63;;;11.65;;
55497;SDS011;41357;52.806;18.268;2023-10-19T00:28:21;24.63;;;9.88;;
55497;SDS011;41357;52.806;18.268;2023-10-19T00:30:47;23.90;;;9.88;;
55497;SDS011;41357;52.806;18.268;2023-10-19T00:33:17;30.58;;;11.10;;
55497;SDS011;41357;52.806;18.268;2023-10-19T00:35:47;29.10;;;11.60;;
55497;SDS011;41357;52.806;18.268;2023-10-19T00:38:23;23.20;;;10.80;;
55497;SDS011;41357;52.806;18.268;2023-10-19T00:40:54;28.13;;;11.52;;
55497;SDS011;41357;52.806;18.268;2023-10-19T00:43:34;25.48;;;11.02;;
55497;SDS011;41357;52.806;18.268;2023-10-19T00:46:10;19.05;;;10.50;;
55497;SDS011;41357;52.806;18.268;2023-10-19T00:48:40;29.58;;;11.07;;
55497;SDS011;41357;52.806;18.268;2023-10-19T00:51:10;28.43;;;10.80;;
55497;SDS011;41357;52.806;18.268;2023-10-19T00:53:52;34.88;;;12.07;;
55497;SDS011;41357;52.806;18.268;2023-10-19T00:56:19;32.92;;;10.43;;
55497;SDS011;41357;52.806;18.268;2023-10-19T00:58:46;20.98;;;10.15;;
55497;SDS011;41357;52.806;18.268;2023-10-19T01:01:19;20.77;;;10.40;;
55497;SDS011;41357;52.806;18.268;2023-10-19T01:06:17;27.95;;;12.07;;
55497;SDS011;41357;52.806;18.268;2023-10-19T01:08:45;29.48;;;11.82;;
55497;SDS011;41357;52.806;18.268;2023-10-19T01:11:11;29.98;;;11.20;;
55497;SDS011;41357;52.806;18.268;2023-10-19T01:13:40;30.55;;;10.52;;
55497;SDS011;41357;52.806;18.268;2023-10-19T01:16:13;26.83;;;11.60;;
55497;SDS011;41357;52.806;18.268;2023-10-19T01:18:52;30.08;;;10.68;;
55497;SDS011;41357;52.806;18.268;2023-10-19T01:21:23;27.60;;;11.52;;
55497;SDS011;41357;52.806;18.268;2023-10-19T01:24:05;23.02;;;10.02;;
55497;SDS011;41357;52.806;18.268;2023-10-19T01:26:32;23.65;;;10.88;;
55497;SDS011;41357;52.806;18.268;2023-10-19T01:29:02;25.50;;;10.63;;
55497;SDS011;41357;52.806;18.268;2023-10-19T01:31:38;31.63;;;11.35;;
55497;SDS011;41357;52.806;18.268;2023-10-19T01:34:17;26.27;;;11.57;;
55497;SDS011;41357;52.806;18.268;2023-10-19T01:36:47;29.67;;;10.90;;
55497;SDS011;41357;52.806;18.268;2023-10-19T01:39:16;30.85;;;10.98;;
55497;SDS011;41357;52.806;18.268;2023-10-19T01:41:44;30.95;;;12.40;;
55497;SDS011;41357;52.806;18.268;2023-10-19T01:44:10;22.95;;;11.05;;
55497;SDS011;41357;52.806;18.268;2023-10-19T01:46:40;35.38;;;11.68;;
55497;SDS011;41357;52.806;18.268;2023-10-19T01:49:08;33.25;;;11.38;;
55497;SDS011;41357;52.806;18.268;2023-10-19T01:51:36;29.20;;;12.43;;
55497;SDS011;41357;52.806;18.268;2023-10-19T01:54:06;24.83;;;10.85;;
55497;SDS011;41357;52.806;18.268;2023-10-19T01:56:32;26.45;;;10.32;;
55497;SDS011;41357;52.806;18.268;2023-10-19T01:59:01;27.45;;;11.02;;
55497;SDS011;41357;52.806;18.268;2023-10-19T02:01:28;24.88;;;11.05;;
55497;SDS011;41357;52.806;18.268;2023-10-19T02:04:04;35.92;;;11.10;;
55497;SDS011;41357;52.806;18.268;2023-10-19T02:06:31;27.65;;;10.55;;
55497;SDS011;41357;52.806;18.268;2023-10-19T02:11:41;24.52;;;9.20;;
55497;SDS011;41357;52.806;18.268;2023-10-19T02:14:08;30.92;;;10.18;;
55497;SDS011;41357;52.806;18.268;2023-10-19T02:16:40;22.52;;;9.52;;
55497;SDS011;41357;52.806;18.268;2023-10-19T02:19:08;24.58;;;10.95;;
55497;SDS011;41357;52.806;18.268;2023-10-19T02:21:34;30.20;;;12.07;;
55497;SDS011;41357;52.806;18.268;2023-10-19T02:24:05;25.30;;;10.25;;
55497;SDS011;41357;52.806;18.268;2023-10-19T02:26:32;25.25;;;10.52;;
55497;SDS011;41357;52.806;18.268;2023-10-19T02:28:59;34.13;;;11.52;;
55497;SDS011;41357;52.806;18.268;2023-10-19T02:31:25;29.20;;;11.07;;
55497;SDS011;41357;52.806;18.268;2023-10-19T02:33:52;24.75;;;12.05;;
55497;SDS011;41357;52.806;18.268;2023-10-19T02:36:25;26.35;;;11.05;;
55497;SDS011;41357;52.806;18.268;2023-10-19T02:38:55;30.13;;;10.93;;
55497;SDS011;41357;52.806;18.268;2023-10-19T02:41:24;30.75;;;11.85;;
55497;SDS011;41357;52.806;18.268;2023-10-19T02:43:52;24.52;;;10.60;;
55497;SDS011;41357;52.806;18.268;2023-10-19T02:46:32;25.83;;;10.82;;
55497;SDS011;41357;52.806;18.268;2023-10-19T02:49:05;31.05;;;12.85;;
55497;SDS011;41357;52.806;18.268;2023-10-19T02:51:38;32.95;;;12.30;;
55497;SDS011;41357;52.806;18.268;2023-10-19T02:54:06;27.30;;;11.35;;
55497;SDS011;41357;52.806;18.268;2023-10-19T02:56:32;33.03;;;13.00;;
55497;SDS011;41357;52.806;18.268;2023-10-19T02:59:01;23.95;;;10.95;;
55497;SDS011;41357;52.806;18.268;2023-10-19T03:01:30;30.90;;;10.68;;
55497;SDS011;41357;52.806;18.268;2023-10-19T03:03:59;34.42;;;11.73;;
55497;SDS011;41357;52.806;18.268;2023-10-19T03:06:29;31.27;;;12.07;;
55497;SDS011;41357;52.806;18.268;2023-10-19T03:08:57;26.20;;;13.45;;
55497;SDS011;41357;52.806;18.268;2023-10-19T03:11:26;28.13;;;12.55;;
55497;SDS011;41357;52.806;18.268;2023-10-19T03:13:55;27.50;;;11.23;;
55497;SDS011;41357;52.806;18.268;2023-10-19T03:16:22;37.97;;;13.80;;
55497;SDS011;41357;52.806;18.268;2023-10-19T03:18:49;33.80;;;12.63;;
55497;SDS011;41357;52.806;18.268;2023-10-19T03:21:18;38.15;;;13.38;;
55497;SDS011;41357;52.806;18.268;2023-10-19T03:23:45;32.28;;;12.40;;
55497;SDS011;41357;52.806;18.268;2023-10-19T03:26:11;34.97;;;11.60;;
55497;SDS011;41357;52.806;18.268;2023-10-19T03:28:47;38.75;;;14.00;;
55497;SDS011;41357;52.806;18.268;2023-10-19T03:31:14;39.50;;;14.60;;
55497;SDS011;41357;52.806;18.268;2023-10-19T03:33:46;33.30;;;13.50;;
55497;SDS011;41357;52.806;18.268;2023-10-19T03:36:20;32.65;;;13.07;;
55497;SDS011;41357;52.806;18.268;2023-10-19T03:38:46;36.97;;;14.02;;
55497;SDS011;41357;52.806;18.268;2023-10-19T03:41:15;36.22;;;14.77;;
55497;SDS011;41357;52.806;18.268;2023-10-19T03:43:41;32.65;;;12.93;;
55497;SDS011;41357;52.806;18.268;2023-10-19T03:46:07;33.25;;;13.25;;
55497;SDS011;41357;52.806;18.268;2023-10-19T03:48:48;33.47;;;13.43;;
55497;SDS011;41357;52.806;18.268;2023-10-19T03:51:14;40.97;;;14.07;;
55497;SDS011;41357;52.806;18.268;2023-10-19T03:53:40;25.42;;;12.73;;
55497;SDS011;41357;52.806;18.268;2023-10-19T03:56:13;30.50;;;12.25;;
55497;SDS011;41357;52.806;18.268;2023-10-19T03:58:42;32.72;;;14.77;;
55497;SDS011;41357;52.806;18.268;2023-10-19T04:01:12;41.38;;;13.90;;
55497;SDS011;41357;52.806;18.268;2023-10-19T04:03:41;30.73;;;13.48;;
55497;SDS011;41357;52.806;18.268;2023-10-19T04:06:08;34.90;;;13.05;;
55497;SDS011;41357;52.806;18.268;2023-10-19T04:08:39;28.75;;;13.05;;
55497;SDS011;41357;52.806;18.268;2023-10-19T04:11:05;32.67;;;13.63;;
55497;SDS011;41357;52.806;18.268;2023-10-19T04:13:37;32.88;;;15.35;;
55497;SDS011;41357;52.806;18.268;2023-10-19T04:16:03;36.80;;;13.32;;
55497;SDS011;41357;52.806;18.268;2023-10-19T04:18:35;38.08;;;14.40;;
55497;SDS011;41357;52.806;18.268;2023-10-19T04:21:03;32.50;;;14.18;;
55497;SDS011;41357;52.806;18.268;2023-10-19T04:23:29;37.10;;;14.73;;
55497;SDS011;41357;52.806;18.268;2023-10-19T04:26:00;30.80;;;13.53;;
55497;SDS011;41357;52.806;18.268;2023-10-19T04:28:36;37.40;;;13.55;;
55497;SDS011;41357;52.806;18.268;2023-10-19T04:31:06;34.38;;;14.10;;
55497;SDS011;41357;52.806;18.268;2023-10-19T04:33:33;33.58;;;12.43;;
55497;SDS011;41357;52.806;18.268;2023-10-19T04:35:59;36.25;;;13.27;;
55497;SDS011;41357;52.806;18.268;2023-10-19T04:38:26;35.30;;;13.82;;
55497;SDS011;41357;52.806;18.268;2023-10-19T04:41:02;29.67;;;14.02;;
55497;SDS011;41357;52.806;18.268;2023-10-19T04:43:28;38.17;;;14.32;;
55497;SDS011;41357;52.806;18.268;2023-10-19T04:45:54;37.45;;;14.70;;
55497;SDS011;41357;52.806;18.268;2023-10-19T04:48:20;32.75;;;14.80;;
55497;SDS011;41357;52.806;18.268;2023-10-19T04:50:47;42.22;;;13.63;;
55497;SDS011;41357;52.806;18.268;2023-10-19T04:53:14;37.22;;;12.65;;
55497;SDS011;41357;52.806;18.268;2023-10-19T04:55:40;32.92;;;13.32;;
55497;SDS011;41357;52.806;18.268;2023-10-19T04:58:07;27.63;;;12.10;;
55497;SDS011;41357;52.806;18.268;2023-10-19T05:00:35;24.15;;;13.32;;
55497;SDS011;41357;52.806;18.268;2023-10-19T05:03:01;31.42;;;12.13;;
55497;SDS011;41357;52.806;18.268;2023-10-19T05:05:28;23.65;;;12.82;;
55497;SDS011;41357;52.806;18.268;2023-10-19T05:07:54;24.05;;;11.48;;
55497;SDS011;41357;52.806;18.268;2023-10-19T05:10:20;27.45;;;12.63;;
55497;SDS011;41357;52.806;18.268;2023-10-19T05:12:46;24.08;;;10.90;;
55497;SDS011;41357;52.806;18.268;2023-10-19T05:15:12;29.27;;;10.32;;
55497;SDS011;41357;52.806;18.268;2023-10-19T05:17:39;26.70;;;13.10;;
55497;SDS011;41357;52.806;18.268;2023-10-19T05:20:06;34.58;;;10.68;;
55497;SDS011;41357;52.806;18.268;2023-10-19T05:22:32;30.63;;;12.10;;
55497;SDS011;41357;52.806;18.268;2023-10-19T05:24:58;31.35;;;12.55;;
55497;SDS011;41357;52.806;18.268;2023-10-19T05:27:26;27.65;;;12.45;;
55497;SDS011;41357;52.806;18.268;2023-10-19T05:29:52;24.17;;;11.23;;
55497;SDS011;41357;52.806;18.268;2023-10-19T05:32:18;30.00;;;13.70;;
55497;SDS011;41357;52.806;18.268;2023-10-19T05:34:44;36.25;;;13.00;;
55497;SDS011;41357;52.806;18.268;2023-10-19T05:37:11;26.73;;;11.82;;
55497;SDS011;41357;52.806;18.268;2023-10-19T05:39:37;29.92;;;13.68;;
55497;SDS011;41357;52.806;18.268;2023-10-19T05:42:03;33.05;;;13.75;;
55497;SDS011;41357;52.806;18.268;2023-10-19T05:44:31;38.75;;;12.25;;
55497;SDS011;41357;52.806;18.268;2023-10-19T05:46:57;25.75;;;10.05;;
55497;SDS011;41357;52.806;18.268;2023-10-19T05:49:27;25.73;;;11.90;;
55497;SDS011;41357;52.806;18.268;2023-10-19T05:51:53;25.77;;;10.68;;
55497;SDS011;41357;52.806;18.268;2023-10-19T05:54:19;30.00;;;12.27;;
55497;SDS011;41357;52.806;18.268;2023-10-19T05:56:48;30.92;;;11.85;;
55497;SDS011;41357;52.806;18.268;2023-10-19T05:59:15;22.95;;;10.65;;
55497;SDS011;41357;52.806;18.268;2023-10-19T06:01:41;27.15;;;11.02;;
55497;SDS011;41357;52.806;18.268;2023-10-19T06:04:07;19.88;;;10.45;;
55497;SDS011;41357;52.806;18.268;2023-10-19T06:06:33;28.20;;;12.60;;
55497;SDS011;41357;52.806;18.268;2023-10-19T06:09:01;27.15;;;11.68;;
55497;SDS011;41357;52.806;18.268;2023-10-19T06:11:30;27.30;;;12.70;;
55497;SDS011;41357;52.806;18.268;2023-10-19T06:13:57;26.63;;;11.55;;
55497;SDS011;41357;52.806;18.268;2023-10-19T06:16:24;31.83;;;12.43;;
55497;SDS011;41357;52.806;18.268;2023-10-19T06:18:50;26.40;;;11.13;;
55497;SDS011;41357;52.806;18.268;2023-10-19T06:21:19;33.17;;;12.43;;
55497;SDS011;41357;52.806;18.268;2023-10-19T06:23:45;24.88;;;11.32;;
55497;SDS011;41357;52.806;18.268;2023-10-19T06:26:12;32.83;;;13.55;;
55497;SDS011;41357;52.806;18.268;2023-10-19T06:28:39;28.00;;;12.32;;
55497;SDS011;41357;52.806;18.268;2023-10-19T06:31:06;29.70;;;11.85;;
55497;SDS011;41357;52.806;18.268;2023-10-19T06:33:32;29.00;;;12.73;;
55497;SDS011;41357;52.806;18.268;2023-10-19T06:35:58;36.63;;;15.02;;
55497;SDS011;41357;52.806;18.268;2023-10-19T06:38:28;33.55;;;14.30;;
55497;SDS011;41357;52.806;18.268;2023-10-19T06:40:54;35.50;;;15.00;;
55497;SDS011;41357;52.806;18.268;2023-10-19T06:43:21;36.10;;;15.23;;
55497;SDS011;41357;52.806;18.268;2023-10-19T06:45:50;29.60;;;12.50;;
55497;SDS011;41357;52.806;18.268;2023-10-19T06:48:17;38.80;;;14.40;;
55497;SDS011;41357;52.806;18.268;2023-10-19T06:50:43;28.33;;;13.35;;
55497;SDS011;41357;52.806;18.268;2023-10-19T06:53:10;28.27;;;12.02;;
55497;SDS011;41357;52.806;18.268;2023-10-19T06:55:36;31.30;;;14.02;;
55497;SDS011;41357;52.806;18.268;2023-10-19T06:58:02;25.85;;;12.45;;
55497;SDS011;41357;52.806;18.268;2023-10-19T07:00:29;25.60;;;12.30;;
55497;SDS011;41357;52.806;18.268;2023-10-19T07:02:56;24.88;;;11.82;;
55497;SDS011;41357;52.806;18.268;2023-10-19T07:05:25;30.17;;;12.48;;
55497;SDS011;41357;52.806;18.268;2023-10-19T07:07:58;23.70;;;10.73;;
55497;SDS011;41357;52.806;18.268;2023-10-19T07:10:24;28.80;;;12.73;;
55497;SDS011;41357;52.806;18.268;2023-10-19T07:12:52;22.15;;;10.93;;
55497;SDS011;41357;52.806;18.268;2023-10-19T07:15:19;25.90;;;12.60;;
55497;SDS011;41357;52.806;18.268;2023-10-19T07:17:47;25.85;;;12.10;;
55497;SDS011;41357;52.806;18.268;2023-10-19T07:20:13;29.40;;;13.43;;
55497;SDS011;41357;52.806;18.268;2023-10-19T07:22:54;26.90;;;12.77;;
55497;SDS011;41357;52.806;18.268;2023-10-19T07:25:21;28.60;;;12.57;;
55497;SDS011;41357;52.806;18.268;2023-10-19T07:27:48;35.67;;;12.80;;
55497;SDS011;41357;52.806;18.268;2023-10-19T07:30:15;27.95;;;12.55;;
55497;SDS011;41357;52.806;18.268;2023-10-19T07:32:45;32.42;;;14.13;;
55497;SDS011;41357;52.806;18.268;2023-10-19T07:35:14;34.15;;;16.27;;
55497;SDS011;41357;52.806;18.268;2023-10-19T07:37:40;73.07;;;25.50;;
55497;SDS011;41357;52.806;18.268;2023-10-19T07:40:08;52.95;;;23.13;;
55497;SDS011;41357;52.806;18.268;2023-10-19T07:42:39;47.17;;;21.23;;
55497;SDS011;41357;52.806;18.268;2023-10-19T07:45:05;33.67;;;12.95;;
55497;SDS011;41357;52.806;18.268;2023-10-19T07:50:03;25.23;;;10.00;;
55497;SDS011;41357;52.806;18.268;2023-10-19T07:52:29;28.63;;;12.45;;
55497;SDS011;41357;52.806;18.268;2023-10-19T07:54:55;23.92;;;11.43;;
55497;SDS011;41357;52.806;18.268;2023-10-19T07:57:21;27.95;;;11.93;;
55497;SDS011;41357;52.806;18.268;2023-10-19T07:59:48;27.38;;;11.13;;
55497;SDS011;41357;52.806;18.268;2023-10-19T08:02:14;20.27;;;10.18;;
55497;SDS011;41357;52.806;18.268;2023-10-19T08:04:40;26.75;;;11.02;;
55497;SDS011;41357;52.806;18.268;2023-10-19T08:07:06;23.58;;;9.48;;
55497;SDS011;41357;52.806;18.268;2023-10-19T08:09:33;30.00;;;10.77;;
55497;SDS011;41357;52.806;18.268;2023-10-19T08:12:00;24.88;;;10.73;;
55497;SDS011;41357;52.806;18.268;2023-10-19T08:14:30;21.92;;;10.95;;
55497;SDS011;41357;52.806;18.268;2023-10-19T08:16:57;27.65;;;11.73;;
55497;SDS011;41357;52.806;18.268;2023-10-19T08:19:23;34.33;;;11.57;;
55497;SDS011;41357;52.806;18.268;2023-10-19T08:21:49;26.52;;;11.15;;
55497;SDS011;41357;52.806;18.268;2023-10-19T08:24:15;21.00;;;9.48;;
55497;SDS011;41357;52.806;18.268;2023-10-19T08:26:43;25.15;;;9.98;;
55497;SDS011;41357;52.806;18.268;2023-10-19T08:29:11;20.45;;;8.77;;
55497;SDS011;41357;52.806;18.268;2023-10-19T08:31:40;25.60;;;9.05;;
55497;SDS011;41357;52.806;18.268;2023-10-19T08:34:12;22.65;;;10.15;;
55497;SDS011;41357;52.806;18.268;2023-10-19T08:36:39;21.95;;;9.73;;
55497;SDS011;41357;52.806;18.268;2023-10-19T08:39:09;22.50;;;10.40;;
55497;SDS011;41357;52.806;18.268;2023-10-19T08:41:38;21.88;;;10.35;;
55497;SDS011;41357;52.806;18.268;2023-10-19T08:44:07;19.27;;;9.80;;
55497;SDS011;41357;52.806;18.268;2023-10-19T08:46:40;22.48;;;10.57;;
55497;SDS011;41357;52.806;18.268;2023-10-19T08:49:13;22.25;;;10.82;;
55497;SDS011;41357;52.806;18.268;2023-10-19T08:51:42;33.47;;;11.95;;
55497;SDS011;41357;52.806;18.268;2023-10-19T08:54:12;24.50;;;10.93;;
55497;SDS011;41357;52.806;18.268;2023-10-19T08:56:39;23.35;;;9.88;;
55497;SDS011;41357;52.806;18.268;2023-10-19T08:59:09;17.33;;;8.68;;
55497;SDS011;41357;52.806;18.268;2023-10-19T09:01:36;19.52;;;9.18;;
55497;SDS011;41357;52.806;18.268;2023-10-19T09:04:03;24.60;;;9.40;;
55497;SDS011;41357;52.806;18.268;2023-10-19T09:06:36;15.70;;;8.27;;
55497;SDS011;41357;52.806;18.268;2023-10-19T09:09:12;23.27;;;9.55;;
55497;SDS011;41357;52.806;18.268;2023-10-19T09:11:50;20.55;;;8.68;;
55497;SDS011;41357;52.806;18.268;2023-10-19T09:16:58;19.05;;;8.73;;
55497;SDS011;41357;52.806;18.268;2023-10-19T09:22:05;23.92;;;9.20;;
55497;SDS011;41357;52.806;18.268;2023-10-19T09:24:45;19.50;;;9.50;;
55497;SDS011;41357;52.806;18.268;2023-10-19T09:27:12;18.15;;;9.15;;
55497;SDS011;41357;52.806;18.268;2023-10-19T09:29:39;20.35;;;8.13;;
55497;SDS011;41357;52.806;18.268;2023-10-19T09:32:08;21.25;;;8.45;;
55497;SDS011;41357;52.806;18.268;2023-10-19T09:34:36;20.90;;;8.25;;
55497;SDS011;41357;52.806;18.268;2023-10-19T09:37:03;22.92;;;8.30;;
55497;SDS011;41357;52.806;18.268;2023-10-19T09:39:30;20.10;;;8.40;;
55497;SDS011;41357;52.806;18.268;2023-10-19T09:42:05;18.75;;;8.50;;
55497;SDS011;41357;52.806;18.268;2023-10-19T09:44:38;17.40;;;8.05;;
55497;SDS011;41357;52.806;18.268;2023-10-19T09:47:07;16.95;;;8.70;;
55497;SDS011;41357;52.806;18.268;2023-10-19T09:49:36;18.23;;;8.43;;
55497;SDS011;41357;52.806;18.268;2023-10-19T09:52:03;21.00;;;8.48;;
55497;SDS011;41357;52.806;18.268;2023-10-19T09:57:14;20.90;;;9.73;;
55497;SDS011;41357;52.806;18.268;2023-10-19T09:59:43;18.40;;;8.32;;
55497;SDS011;41357;52.806;18.268;2023-10-19T10:02:11;21.88;;;9.07;;
55497;SDS011;41357;52.806;18.268;2023-10-19T10:04:38;17.77;;;8.32;;
55497;SDS011;41357;52.806;18.268;2023-10-19T10:07:05;21.40;;;8.90;;
55497;SDS011;41357;52.806;18.268;2023-10-19T10:09:36;24.75;;;8.80;;
55497;SDS011;41357;52.806;18.268;2023-10-19T10:12:15;14.93;;;8.32;;
55497;SDS011;41357;52.806;18.268;2023-10-19T10:14:52;19.13;;;9.00;;
55497;SDS011;41357;52.806;18.268;2023-10-19T10:17:18;21.63;;;10.10;;
55497;SDS011;41357;52.806;18.268;2023-10-19T10:19:44;17.80;;;8.82;;
55497;SDS011;41357;52.806;18.268;2023-10-19T10:22:10;17.20;;;7.55;;
55497;SDS011;41357;52.806;18.268;2023-10-19T10:24:43;19.67;;;8.88;;
55497;SDS011;41357;52.806;18.268;2023-10-19T10:27:09;18.77;;;8.65;;
55497;SDS011;41357;52.806;18.268;2023-10-19T10:30:00;18.70;;;8.73;;
55497;SDS011;41357;52.806;18.268;2023-10-19T10:37:36;17.20;;;7.38;;
55497;SDS011;41357;52.806;18.268;2023-10-19T10:40:03;26.55;;;10.00;;
55497;SDS011;41357;52.806;18.268;2023-10-19T10:42:31;16.30;;;8.27;;
55497;SDS011;41357;52.806;18.268;2023-10-19T10:44:59;19.40;;;8.65;;
55497;SDS011;41357;52.806;18.268;2023-10-19T10:47:27;18.75;;;8.18;;
55497;SDS011;41357;52.806;18.268;2023-10-19T10:55:15;16.27;;;8.60;;
55497;SDS011;41357;52.806;18.268;2023-10-19T10:57:40;17.15;;;8.70;;
55497;SDS011;41357;52.806;18.268;2023-10-19T11:00:08;17.17;;;8.65;;
55497;SDS011;41357;52.806;18.268;2023-10-19T11:02:40;14.45;;;8.13;;
55497;SDS011;41357;52.806;18.268;2023-10-19T11:05:14;12.95;;;7.40;;
55497;SDS011;41357;52.806;18.268;2023-10-19T11:07:41;15.65;;;7.43;;
55497;SDS011;41357;52.806;18.268;2023-10-19T11:10:07;23.60;;;8.88;;
55497;SDS011;41357;52.806;18.268;2023-10-19T11:12:35;19.48;;;9.30;;
55497;SDS011;41357;52.806;18.268;2023-10-19T11:15:02;15.25;;;8.38;;
55497;SDS011;41357;52.806;18.268;2023-10-19T11:17:41;14.07;;;6.82;;
55497;SDS011;41357;52.806;18.268;2023-10-19T11:20:07;15.00;;;6.47;;
55497;SDS011;41357;52.806;18.268;2023-10-19T11:22:47;17.48;;;8.30;;
55497;SDS011;41357;52.806;18.268;2023-10-19T11:25:18;17.30;;;8.43;;
55497;SDS011;41357;52.806;18.268;2023-10-19T11:27:44;13.93;;;7.32;;
55497;SDS011;41357;52.806;18.268;2023-10-19T11:30:12;18.50;;;8.32;;
55497;SDS011;41357;52.806;18.268;2023-10-19T11:32:38;15.52;;;7.57;;
55497;SDS011;41357;52.806;18.268;2023-10-19T11:35:05;15.15;;;6.75;;
55497;SDS011;41357;52.806;18.268;2023-10-19T11:40:15;14.80;;;7.27;;
55497;SDS011;41357;52.806;18.268;2023-10-19T11:42:41;14.23;;;7.25;;
55497;SDS011;41357;52.806;18.268;2023-10-19T11:45:08;18.83;;;7.60;;
55497;SDS011;41357;52.806;18.268;2023-10-19T11:47:36;13.80;;;7.80;;
55497;SDS011;41357;52.806;18.268;2023-10-19T11:50:02;15.52;;;7.75;;
55497;SDS011;41357;52.806;18.268;2023-10-19T11:52:29;17.10;;;8.10;;
55497;SDS011;41357;52.806;18.268;2023-10-19T11:54:55;13.90;;;7.18;;
55497;SDS011;41357;52.806;18.268;2023-10-19T11:57:23;40.33;;;20.40;;
55497;SDS011;41357;52.806;18.268;2023-10-19T11:59:50;25.05;;;11.82;;
55497;SDS011;41357;52.806;18.268;2023-10-19T12:02:19;27.90;;;16.77;;
55497;SDS011;41357;52.806;18.268;2023-10-19T12:04:45;18.80;;;10.88;;
55497;SDS011;41357;52.806;18.268;2023-10-19T12:07:12;17.27;;;8.50;;
55497;SDS011;41357;52.806;18.268;2023-10-19T12:09:38;17.08;;;7.75;;
55497;SDS011;41357;52.806;18.268;2023-10-19T12:12:07;15.43;;;7.60;;
55497;SDS011;41357;52.806;18.268;2023-10-19T12:14:34;16.15;;;7.43;;
55497;SDS011;41357;52.806;18.268;2023-10-19T12:17:01;19.08;;;7.55;;
55497;SDS011;41357;52.806;18.268;2023-10-19T12:19:31;16.75;;;8.48;;
55497;SDS011;41357;52.806;18.268;2023-10-19T12:21:57;13.80;;;7.22;;
55497;SDS011;41357;52.806;18.268;2023-10-19T12:24:23;14.27;;;7.10;;
55497;SDS011;41357;52.806;18.268;2023-10-19T12:26:53;14.70;;;7.07;;
55497;SDS011;41357;52.806;18.268;2023-10-19T12:29:19;18.63;;;7.97;;
55497;SDS011;41357;52.806;18.268;2023-10-19T12:31:48;20.33;;;8.55;;
55497;SDS011;41357;52.806;18.268;2023-10-19T12:34:15;17.67;;;8.80;;
55497;SDS011;41357;52.806;18.268;2023-10-19T12:36:41;20.10;;;8.05;;
55497;SDS011;41357;52.806;18.268;2023-10-19T12:39:11;19.40;;;8.68;;
55497;SDS011;41357;52.806;18.268;2023-10-19T12:41:57;12.98;;;8.07;;
55497;SDS011;41357;52.806;18.268;2023-10-19T12:44:23;14.50;;;7.40;;
55497;SDS011;41357;52.806;18.268;2023-10-19T12:46:49;20.38;;;8.55;;
55497;SDS011;41357;52.806;18.268;2023-10-19T12:49:18;17.42;;;8.02;;
55497;SDS011;41357;52.806;18.268;2023-10-19T12:51:50;17.38;;;7.80;;
55497;SDS011;41357;52.806;18.268;2023-10-19T12:54:17;17.52;;;7.93;;
55497;SDS011;41357;52.806;18.268;2023-10-19T12:56:43;18.00;;;7.97;;
55497;SDS011;41357;52.806;18.268;2023-10-19T12:59:09;19.90;;;7.88;;
55497;SDS011;41357;52.806;18.268;2023-10-19T13:01:36;13.20;;;6.78;;
55497;SDS011;41357;52.806;18.268;2023-10-19T13:04:02;24.40;;;8.65;;
55497;SDS011;41357;52.806;18.268;2023-10-19T13:06:41;17.25;;;8.75;;
55497;SDS011;41357;52.806;18.268;2023-10-19T13:09:08;18.55;;;8.32;;
55497;SDS011;41357;52.806;18.268;2023-10-19T13:11:34;18.10;;;8.18;;
55497;SDS011;41357;52.806;18.268;2023-10-19T13:14:00;16.85;;;7.90;;
55497;SDS011;41357;52.806;18.268;2023-10-19T13:16:27;21.25;;;8.85;;
55497;SDS011;41357;52.806;18.268;2023-10-19T13:18:53;20.05;;;8.82;;
55497;SDS011;41357;52.806;18.268;2023-10-19T13:21:19;12.70;;;7.20;;
55497;SDS011;41357;52.806;18.268;2023-10-19T13:23:53;14.52;;;8.15;;
55497;SDS011;41357;52.806;18.268;2023-10-19T13:26:19;15.40;;;7.80;;
55497;SDS011;41357;52.806;18.268;2023-10-19T13:28:45;16.40;;;8.52;;
55497;SDS011;41357;52.806;18.268;2023-10-19T13:31:12;17.48;;;8.50;;
55497;SDS011;41357;52.806;18.268;2023-10-19T13:33:41;20.90;;;8.18;;
55497;SDS011;41357;52.806;18.268;2023-10-19T13:36:09;17.35;;;8.70;;
55497;SDS011;41357;52.806;18.268;2023-10-19T13:38:35;20.73;;;8.10;;
55497;SDS011;41357;52.806;18.268;2023-10-19T13:41:03;28.75;;;10.55;;
55497;SDS011;41357;52.806;18.268;2023-10-19T13:43:32;16.75;;;8.10;;
55497;SDS011;41357;52.806;18.268;2023-10-19T13:45:58;20.73;;;8.15;;
55497;SDS011;41357;52.806;18.268;2023-10-19T13:48:26;18.20;;;8.77;;
55497;SDS011;41357;52.806;18.268;2023-10-19T13:50:52;14.45;;;7.53;;
55497;SDS011;41357;52.806;18.268;2023-10-19T13:53:25;21.42;;;9.73;;
55497;SDS011;41357;52.806;18.268;2023-10-19T13:55:51;22.23;;;9.65;;
55497;SDS011;41357;52.806;18.268;2023-10-19T13:58:17;17.67;;;8.43;;
55497;SDS011;41357;52.806;18.268;2023-10-19T14:00:43;19.17;;;7.50;;
55497;SDS011;41357;52.806;18.268;2023-10-19T14:03:13;16.58;;;8.45;;
55497;SDS011;41357;52.806;18.268;2023-10-19T14:05:40;19.20;;;7.95;;
55497;SDS011;41357;52.806;18.268;2023-10-19T14:08:13;23.73;;;8.60;;
55497;SDS011;41357;52.806;18.268;2023-10-19T14:10:39;23.25;;;8.40;;
55497;SDS011;41357;52.806;18.268;2023-10-19T14:13:09;19.42;;;8.20;;
55497;SDS011;41357;52.806;18.268;2023-10-19T14:15:39;24.48;;;8.85;;
55497;SDS011;41357;52.806;18.268;2023-10-19T14:18:07;15.90;;;8.00;;
55497;SDS011;41357;52.806;18.268;2023-10-19T14:20:34;18.80;;;9.50;;
55497;SDS011;41357;52.806;18.268;2023-10-19T14:23:04;16.75;;;8.10;;
55497;SDS011;41357;52.806;18.268;2023-10-19T14:25:30;24.83;;;9.18;;
55497;SDS011;41357;52.806;18.268;2023-10-19T14:27:56;19.50;;;7.88;;
55497;SDS011;41357;52.806;18.268;2023-10-19T14:30:25;21.00;;;8.30;;
55497;SDS011;41357;52.806;18.268;2023-10-19T14:32:51;24.23;;;8.63;;
55497;SDS011;41357;52.806;18.268;2023-10-19T14:35:18;15.50;;;7.93;;
55497;SDS011;41357;52.806;18.268;2023-10-19T14:37:48;17.15;;;8.00;;
55497;SDS011;41357;52.806;18.268;2023-10-19T14:40:15;22.88;;;9.65;;
55497;SDS011;41357;52.806;18.268;2023-10-19T14:42:42;21.83;;;10.68;;
55497;SDS011;41357;52.806;18.268;2023-10-19T14:45:15;21.25;;;10.90;;
55497;SDS011;41357;52.806;18.268;2023-10-19T14:47:48;20.17;;;10.20;;
55497;SDS011;41357;52.806;18.268;2023-10-19T14:50:16;17.63;;;9.50;;